createdAt,value
2022-08-10T00:01:45.739Z,13.90
2022-08-10T00:04:21.637Z,13.90
2022-08-10T00:06:53.614Z,13.90
2022-08-10T00:09:21.733Z,13.90
2022-08-10T00:11:48.786Z,13.90
2022-08-10T00:14:16.103Z,13.90
2022-08-10T00:16:43.009Z,13.90
2022-08-10T00:19:10.178Z,13.90
2022-08-10T00:21:38.103Z,13.90
2022-08-10T00:24:05.350Z,13.90
2022-08-10T00:27:58.542Z,14.00
2022-08-10T00:29:19.518Z,14.00
2022-08-10T00:31:58.168Z,14.00
2022-08-10T00:34:27.112Z,14.00
2022-08-10T00:36:54.058Z,14.00
2022-08-10T00:39:21.045Z,13.90
2022-08-10T00:42:02.376Z,13.90
2022-08-10T00:44:36.295Z,14.00
2022-08-10T00:47:03.797Z,14.00
2022-08-10T00:49:30.762Z,14.00
2022-08-10T00:51:57.824Z,14.10
2022-08-10T00:54:25.296Z,14.20
2022-08-10T00:57:15.521Z,14.20
2022-08-10T00:59:58.183Z,14.30
2022-08-10T01:02:27.790Z,14.30
2022-08-10T01:05:00.868Z,14.30
2022-08-10T01:07:34.077Z,14.30
2022-08-10T01:10:33.815Z,14.30
2022-08-10T01:13:18.817Z,14.30
2022-08-10T01:16:08.369Z,14.40
2022-08-10T01:19:06.495Z,14.50
2022-08-10T01:22:11.113Z,14.60
2022-08-10T01:25:35.518Z,14.70
2022-08-10T01:28:46.358Z,14.80
2022-08-10T01:31:20.046Z,14.80
2022-08-10T01:34:02.927Z,14.80
2022-08-10T01:36:41.246Z,14.80
2022-08-10T01:39:09.302Z,14.70
2022-08-10T01:41:46.582Z,14.80
2022-08-10T01:44:20.022Z,14.80
2022-08-10T01:46:53.000Z,14.80
2022-08-10T01:49:26.487Z,14.80
2022-08-10T01:52:00.562Z,14.70
2022-08-10T01:54:29.766Z,14.70
2022-08-10T01:56:58.299Z,14.70
2022-08-10T01:59:37.171Z,14.70
2022-08-10T02:02:08.038Z,14.70
2022-08-10T02:04:38.107Z,14.70
2022-08-10T02:07:08.492Z,14.60
2022-08-10T02:09:40.308Z,14.50
2022-08-10T02:12:10.870Z,14.50
2022-08-10T02:15:02.081Z,14.50
2022-08-10T02:17:59.387Z,14.40
2022-08-10T02:20:25.917Z,14.40
2022-08-10T02:22:58.198Z,14.40
2022-08-10T02:25:42.394Z,14.40
2022-08-10T02:28:29.902Z,14.40
2022-08-10T02:31:15.317Z,14.40
2022-08-10T02:33:57.301Z,14.50
2022-08-10T02:36:29.489Z,14.40
2022-08-10T02:39:00.981Z,14.40
2022-08-10T02:45:16.071Z,14.60
2022-08-10T02:45:26.892Z,14.60
2022-08-10T02:48:03.246Z,14.70
2022-08-10T02:50:36.177Z,14.60
2022-08-10T02:53:54.531Z,14.60
2022-08-10T02:56:19.978Z,14.50
2022-08-10T02:58:56.842Z,14.50
2022-08-10T03:01:32.296Z,14.50
2022-08-10T03:04:04.333Z,14.50
2022-08-10T03:06:37.046Z,14.60
2022-08-10T03:09:07.046Z,14.50
2022-08-10T03:12:37.426Z,14.60
2022-08-10T03:14:24.701Z,14.60
2022-08-10T03:16:54.103Z,14.50
2022-08-10T03:20:34.274Z,14.50
2022-08-10T03:22:11.569Z,14.60
2022-08-10T03:24:39.624Z,14.60
2022-08-10T03:27:07.250Z,14.40
2022-08-10T03:30:23.190Z,14.40
2022-08-10T03:32:24.174Z,14.40
2022-08-10T03:34:52.295Z,14.30
2022-08-10T03:37:19.503Z,14.40
2022-08-10T03:39:46.603Z,14.30
2022-08-10T03:42:16.755Z,14.40
2022-08-10T03:44:49.861Z,14.40
2022-08-10T03:47:20.026Z,14.40
2022-08-10T03:49:48.921Z,14.40
2022-08-10T03:52:17.612Z,14.50
2022-08-10T03:54:46.889Z,14.60
2022-08-10T03:57:14.227Z,14.70
2022-08-10T03:59:41.358Z,14.70
2022-08-10T04:02:45.682Z,14.80
2022-08-10T04:04:56.548Z,14.90
2022-08-10T04:07:24.053Z,15.00
2022-08-10T04:09:54.500Z,15.00
2022-08-10T04:12:23.386Z,15.10
2022-08-10T04:14:52.845Z,15.30
2022-08-10T04:18:03.325Z,15.40
2022-08-10T04:20:19.886Z,15.40
2022-08-10T04:22:52.938Z,15.50
2022-08-10T04:25:21.350Z,15.60
2022-08-10T04:27:49.783Z,15.60
2022-08-10T04:30:17.629Z,15.70
2022-08-10T04:32:49.107Z,15.80
2022-08-10T04:35:18.745Z,15.90
2022-08-10T04:37:48.225Z,16.00
2022-08-10T04:40:25.209Z,16.10
2022-08-10T04:43:02.174Z,16.20
2022-08-10T04:45:49.963Z,16.30
2022-08-10T04:48:40.490Z,16.40
2022-08-10T04:51:08.080Z,16.50
2022-08-10T04:54:05.904Z,16.70
2022-08-10T04:56:31.570Z,16.80
2022-08-10T04:59:00.535Z,17.00
2022-08-10T05:02:30.530Z,17.10
2022-08-10T05:04:34.355Z,17.20
2022-08-10T05:07:02.252Z,17.20
2022-08-10T05:09:29.437Z,17.20
2022-08-10T05:11:56.322Z,17.20
2022-08-10T05:14:23.363Z,17.20
2022-08-10T05:16:50.495Z,17.30
2022-08-10T05:19:17.430Z,17.40
2022-08-10T05:22:03.234Z,17.50
2022-08-10T05:24:32.196Z,17.50
2022-08-10T05:27:09.610Z,17.60
2022-08-10T05:29:37.911Z,17.80
2022-08-10T05:32:05.386Z,17.80
2022-08-10T05:34:32.702Z,17.80
2022-08-10T05:37:00.333Z,17.90
2022-08-10T05:39:31.811Z,18.10
2022-08-10T05:42:01.617Z,18.10
2022-08-10T05:44:29.815Z,18.20
2022-08-10T05:46:57.221Z,18.30
2022-08-10T05:49:24.827Z,18.30
2022-08-10T05:51:56.298Z,18.40
2022-08-10T05:54:25.234Z,18.50
2022-08-10T05:56:56.663Z,18.60
2022-08-10T06:00:32.954Z,18.60
2022-08-10T06:02:35.363Z,18.60
2022-08-10T06:05:15.792Z,18.50
2022-08-10T06:08:02.671Z,18.40
2022-08-10T06:10:33.071Z,18.50
2022-08-10T06:13:29.834Z,18.80
2022-08-10T06:16:09.076Z,18.80
2022-08-10T06:18:37.502Z,19.00
2022-08-10T06:21:05.815Z,19.10
2022-08-10T06:23:33.447Z,19.10
2022-08-10T06:26:10.020Z,19.40
2022-08-10T06:28:52.779Z,19.60
2022-08-10T06:31:46.904Z,19.60
2022-08-10T06:34:22.547Z,19.60
2022-08-10T06:37:07.288Z,19.60
2022-08-10T06:39:49.935Z,19.90
2022-08-10T06:42:35.546Z,20.30
2022-08-10T06:45:21.600Z,20.60
2022-08-10T06:48:33.824Z,20.90
2022-08-10T06:51:23.804Z,21.10
2022-08-10T06:53:57.569Z,21.40
2022-08-10T06:56:37.536Z,21.40
2022-08-10T06:59:22.850Z,21.50
2022-08-10T07:02:03.621Z,21.90
2022-08-10T07:04:35.117Z,21.60
2022-08-10T07:07:07.861Z,21.70
2022-08-10T07:09:39.342Z,21.90
2022-08-10T07:12:09.344Z,22.00
2022-08-10T07:14:56.925Z,22.10
2022-08-10T07:17:26.355Z,22.00
2022-08-10T07:19:56.854Z,22.30
2022-08-10T07:23:54.533Z,22.40
2022-08-10T07:25:22.410Z,22.80
2022-08-10T07:27:58.570Z,22.70
2022-08-10T07:30:36.167Z,22.90
2022-08-10T07:33:05.127Z,23.00
2022-08-10T07:35:42.089Z,23.00
2022-08-10T07:38:27.013Z,22.90
2022-08-10T07:40:54.839Z,23.00
2022-08-10T07:43:24.938Z,23.00
2022-08-10T07:45:52.408Z,23.50
2022-08-10T07:48:28.593Z,23.60
2022-08-10T07:51:00.158Z,23.20
2022-08-10T07:53:33.826Z,23.20
2022-08-10T07:56:13.214Z,23.10
2022-08-10T07:58:51.530Z,22.90
2022-08-10T08:01:22.541Z,22.80
2022-08-10T08:04:05.802Z,22.60
2022-08-10T08:06:41.035Z,22.50
2022-08-10T08:09:09.015Z,22.60
2022-08-10T08:11:37.975Z,22.80
2022-08-10T08:14:07.538Z,23.00
2022-08-10T08:16:38.525Z,23.10
2022-08-10T08:24:06.051Z,23.50
2022-08-10T08:24:44.380Z,23.80
2022-08-10T08:27:16.171Z,24.10
2022-08-10T08:29:45.626Z,24.50
2022-08-10T08:32:16.172Z,24.70
2022-08-10T08:34:45.210Z,24.80
2022-08-10T08:38:26.496Z,24.90
2022-08-10T08:40:06.878Z,24.70
2022-08-10T08:42:48.919Z,24.90
2022-08-10T08:45:48.203Z,25.30
2022-08-10T08:48:46.937Z,25.50
2022-08-10T08:52:07.412Z,25.60
2022-08-10T08:54:19.023Z,25.20
2022-08-10T08:56:52.320Z,24.80
2022-08-10T08:59:45.153Z,24.80
2022-08-10T09:02:36.379Z,24.80
2022-08-10T09:05:58.496Z,24.50
2022-08-10T09:09:00.586Z,24.30
2022-08-10T09:11:49.044Z,24.70
2022-08-10T09:14:26.121Z,24.50
2022-08-10T09:17:15.974Z,24.60
2022-08-10T09:19:53.346Z,24.20
2022-08-10T09:22:43.629Z,23.90
2022-08-10T09:25:14.131Z,23.70
2022-08-10T09:27:49.511Z,23.90
2022-08-10T09:30:29.339Z,24.30
2022-08-10T09:36:22.609Z,24.80
2022-08-10T09:36:28.203Z,24.60
2022-08-10T09:40:12.539Z,24.30
2022-08-10T09:42:40.923Z,23.80
2022-08-10T09:45:33.033Z,23.60
2022-08-10T09:48:06.006Z,24.00
2022-08-10T09:51:41.705Z,24.50
2022-08-10T09:54:07.759Z,24.60
2022-08-10T10:00:04.311Z,24.00
2022-08-10T10:03:19.678Z,24.60
2022-08-10T10:05:56.713Z,24.70
2022-08-10T10:08:49.945Z,24.50
2022-08-10T10:11:29.364Z,24.50
2022-08-10T10:14:10.523Z,25.20
2022-08-10T10:17:03.594Z,25.90
2022-08-10T10:19:53.692Z,25.90
2022-08-10T10:22:51.642Z,25.90
2022-08-10T10:25:50.581Z,25.60
2022-08-10T10:32:02.609Z,24.60
2022-08-10T10:34:38.675Z,24.40
2022-08-10T10:37:07.510Z,24.30
2022-08-10T10:39:39.752Z,24.20
2022-08-10T10:42:28.937Z,24.40
2022-08-10T10:45:18.180Z,24.90
2022-08-10T10:48:23.965Z,25.30
2022-08-10T10:51:21.599Z,25.80
2022-08-10T10:54:19.347Z,26.00
2022-08-10T10:57:16.099Z,26.00
2022-08-10T11:00:10.836Z,26.20
2022-08-10T11:02:49.922Z,26.60
2022-08-10T11:05:37.106Z,26.40
2022-08-10T11:08:15.574Z,26.60
2022-08-10T11:10:56.438Z,27.00
2022-08-10T11:14:26.711Z,27.20
2022-08-10T11:17:00.355Z,27.10
2022-08-10T11:20:02.362Z,27.10
2022-08-10T11:22:36.943Z,27.50
2022-08-10T11:25:21.705Z,27.80
2022-08-10T11:27:54.666Z,27.40
2022-08-10T11:30:40.203Z,26.90
2022-08-10T11:33:12.801Z,26.40
2022-08-10T11:36:10.493Z,26.00
2022-08-10T11:39:13.059Z,25.50
2022-08-10T11:42:09.879Z,24.90
2022-08-10T11:44:37.125Z,24.60
2022-08-10T11:47:15.059Z,24.30
2022-08-10T11:50:00.232Z,24.30
2022-08-10T11:52:49.091Z,24.30
2022-08-10T11:55:20.337Z,24.30
2022-08-10T11:57:54.507Z,24.70
2022-08-10T12:00:24.416Z,25.60
2022-08-10T12:03:02.230Z,26.40
2022-08-10T12:05:52.639Z,26.90
2022-08-10T12:10:03.032Z,26.70
2022-08-10T12:11:24.484Z,26.00
2022-08-10T12:14:20.299Z,25.40
2022-08-10T12:16:51.364Z,24.90
2022-08-10T12:19:28.111Z,24.60
2022-08-10T12:22:06.075Z,24.40
2022-08-10T12:24:39.459Z,24.30
2022-08-10T12:32:03.824Z,24.80
2022-08-10T12:35:26.142Z,25.70
2022-08-10T12:38:34.620Z,26.50
2022-08-10T12:41:06.859Z,27.30
2022-08-10T12:44:08.856Z,27.90
2022-08-10T12:46:52.229Z,28.00
2022-08-10T12:50:29.254Z,27.20
2022-08-10T12:53:06.844Z,26.40
2022-08-10T12:55:37.501Z,25.60
2022-08-10T12:58:08.652Z,24.70
2022-08-10T13:01:16.512Z,24.30
2022-08-10T13:04:20.343Z,24.10
2022-08-10T13:07:00.147Z,24.00
2022-08-10T13:09:28.864Z,23.90
2022-08-10T13:12:36.343Z,23.80
2022-08-10T13:15:03.531Z,23.70
2022-08-10T13:17:53.273Z,23.60
2022-08-10T13:20:34.236Z,23.80
2022-08-10T13:23:11.372Z,24.10
2022-08-10T13:25:43.269Z,24.50
2022-08-10T13:28:36.542Z,24.80
2022-08-10T13:31:05.320Z,25.20
2022-08-10T13:34:40.999Z,25.50
2022-08-10T13:36:27.727Z,25.90
2022-08-10T13:38:59.850Z,26.40
2022-08-10T13:41:35.240Z,26.70
2022-08-10T13:44:02.442Z,26.90
2022-08-10T13:46:31.126Z,26.70
2022-08-10T13:49:02.559Z,26.20
2022-08-10T13:51:56.883Z,25.80
2022-08-10T13:54:24.940Z,25.20
2022-08-10T13:56:53.569Z,24.80
2022-08-10T13:59:25.508Z,24.70
2022-08-10T14:02:17.569Z,24.50
2022-08-10T14:04:47.212Z,24.20
2022-08-10T14:07:17.355Z,24.10
2022-08-10T14:09:47.721Z,24.00
2022-08-10T14:12:16.835Z,23.90
2022-08-10T14:14:53.017Z,24.00
2022-08-10T14:17:22.946Z,24.00
2022-08-10T14:19:59.124Z,24.10
2022-08-10T14:22:33.723Z,24.40
2022-08-10T14:25:11.454Z,24.90
2022-08-10T14:28:03.502Z,25.50
2022-08-10T14:30:33.386Z,24.90
2022-08-10T14:33:04.940Z,24.30
2022-08-10T14:36:18.896Z,23.90
2022-08-10T14:38:33.566Z,23.70
2022-08-10T14:41:04.118Z,23.60
2022-08-10T14:43:38.340Z,23.70
2022-08-10T14:46:08.228Z,23.70
2022-08-10T14:48:44.529Z,23.60
2022-08-10T14:51:16.407Z,23.60
2022-08-10T14:53:50.311Z,23.60
2022-08-10T14:56:29.991Z,23.60
2022-08-10T14:59:06.972Z,23.50
2022-08-10T15:02:01.373Z,23.50
2022-08-10T15:04:32.136Z,23.50
2022-08-10T15:07:12.241Z,23.50
2022-08-10T15:09:59.780Z,23.50
2022-08-10T15:12:35.922Z,23.50
2022-08-10T15:15:06.474Z,23.40
2022-08-10T15:17:37.914Z,23.30
2022-08-10T15:20:21.221Z,23.30
2022-08-10T15:22:55.692Z,23.30
2022-08-10T15:25:26.140Z,23.30
2022-08-10T15:28:10.755Z,23.50
2022-08-10T15:30:45.525Z,23.60
2022-08-10T15:34:03.718Z,23.80
2022-08-10T15:37:02.505Z,23.80
2022-08-10T15:40:25.211Z,23.80
2022-08-10T15:43:24.614Z,23.60
2022-08-10T15:46:04.335Z,23.50
2022-08-10T15:48:48.158Z,23.50
2022-08-10T15:51:53.792Z,23.40
2022-08-10T15:54:33.121Z,23.40
2022-08-10T15:57:07.282Z,23.30
2022-08-10T15:59:45.038Z,23.30
2022-08-10T16:02:17.734Z,23.30
2022-08-10T16:06:00.614Z,23.30
2022-08-10T16:08:15.346Z,23.20
2022-08-10T16:10:53.658Z,23.30
2022-08-10T16:14:00.930Z,23.20
2022-08-10T16:16:14.291Z,23.10
2022-08-10T16:18:44.929Z,23.00
2022-08-10T16:21:20.793Z,23.00
2022-08-10T16:24:14.332Z,22.90
2022-08-10T16:26:47.378Z,22.70
2022-08-10T16:29:20.155Z,22.60
2022-08-10T16:31:57.440Z,22.60
2022-08-10T16:34:28.161Z,22.50
2022-08-10T16:37:06.359Z,22.40
2022-08-10T16:39:56.959Z,22.30
2022-08-10T16:42:28.765Z,22.20
2022-08-10T16:45:05.949Z,22.00
2022-08-10T16:47:37.372Z,21.90
2022-08-10T16:50:11.106Z,21.80
2022-08-10T16:52:39.976Z,21.70
2022-08-10T16:55:24.317Z,21.60
2022-08-10T16:58:02.171Z,21.50
2022-08-10T17:00:30.572Z,21.50
2022-08-10T17:04:04.365Z,21.50
2022-08-10T17:06:09.753Z,21.50
2022-08-10T17:08:47.879Z,21.40
2022-08-10T17:11:19.226Z,21.20
2022-08-10T17:13:47.252Z,21.10
2022-08-10T17:16:17.246Z,21.00
2022-08-10T17:18:48.175Z,21.00
2022-08-10T17:21:30.433Z,21.00
2022-08-10T17:24:03.080Z,21.10
2022-08-10T17:26:35.942Z,21.10
2022-08-10T17:29:58.762Z,21.10
2022-08-10T17:32:25.457Z,21.10
2022-08-10T17:34:58.986Z,21.00
2022-08-10T17:37:31.660Z,21.00
2022-08-10T17:40:06.160Z,20.90
2022-08-10T17:42:35.563Z,20.90
2022-08-10T17:45:05.812Z,20.90
2022-08-10T17:47:35.084Z,20.90
2022-08-10T17:50:03.500Z,20.80
2022-08-10T17:52:33.474Z,20.80
2022-08-10T17:55:05.947Z,20.80
2022-08-10T17:57:39.562Z,20.80
2022-08-10T18:00:16.075Z,20.70
2022-08-10T18:02:49.458Z,20.60
2022-08-10T18:05:17.425Z,20.50
2022-08-10T18:07:50.359Z,20.40
2022-08-10T18:10:21.599Z,20.20
2022-08-10T18:12:55.213Z,20.10
2022-08-10T18:15:27.026Z,20.00
2022-08-10T18:18:00.089Z,19.90
2022-08-10T18:20:34.923Z,19.80
2022-08-10T18:23:03.925Z,19.70
2022-08-10T18:25:35.977Z,19.50
2022-08-10T18:28:08.131Z,19.40
2022-08-10T18:30:48.309Z,19.30
2022-08-10T18:33:18.811Z,19.10
2022-08-10T18:35:48.234Z,19.00
2022-08-10T18:38:17.875Z,18.90
2022-08-10T18:40:53.348Z,18.80
2022-08-10T18:44:08.388Z,18.60
2022-08-10T18:46:24.704Z,18.60
2022-08-10T18:49:10.305Z,18.50
2022-08-10T18:51:46.705Z,18.30
2022-08-10T18:54:39.400Z,18.20
2022-08-10T18:57:57.229Z,18.10
2022-08-10T19:00:47.675Z,18.00
2022-08-10T19:03:28.670Z,18.00
2022-08-10T19:06:09.990Z,17.80
2022-08-10T19:09:01.648Z,17.80
2022-08-10T19:11:50.526Z,17.60
2022-08-10T19:14:25.942Z,17.50
2022-08-10T19:17:17.013Z,17.40
2022-08-10T19:20:13.646Z,17.40
2022-08-10T19:22:54.162Z,17.30
2022-08-10T19:26:42.280Z,17.30
2022-08-10T19:28:59.169Z,17.30
2022-08-10T19:31:45.086Z,17.40
2022-08-10T19:34:39.725Z,17.50
2022-08-10T19:37:29.639Z,17.70
2022-08-10T19:40:09.842Z,17.80
2022-08-10T19:43:01.911Z,17.80
2022-08-10T19:46:14.795Z,17.70
2022-08-10T19:49:02.735Z,17.70
2022-08-10T19:52:11.650Z,17.60
2022-08-10T19:54:49.421Z,17.60
2022-08-10T19:57:49.306Z,17.50
2022-08-10T20:00:22.950Z,17.40
2022-08-10T20:03:11.690Z,17.30
2022-08-10T20:06:18.078Z,17.20
2022-08-10T20:09:24.742Z,17.10
2022-08-10T20:11:58.527Z,17.00
2022-08-10T20:14:42.034Z,16.90
2022-08-10T20:26:30.882Z,16.60
2022-08-10T20:29:57.154Z,16.50
2022-08-10T20:32:32.994Z,16.50
2022-08-10T20:35:08.059Z,16.40
2022-08-10T20:38:04.510Z,16.30
2022-08-10T20:40:57.270Z,16.30
2022-08-10T20:44:00.422Z,16.30
2022-08-10T20:46:47.872Z,16.20
2022-08-10T20:49:18.496Z,16.20
2022-08-10T20:51:59.448Z,16.10
2022-08-10T20:54:48.905Z,16.10
2022-08-10T20:57:54.948Z,16.10
2022-08-10T21:00:46.563Z,16.00
2022-08-10T21:03:21.295Z,16.00
2022-08-10T21:06:27.328Z,15.90
2022-08-10T21:09:34.748Z,15.80
2022-08-10T21:12:21.406Z,15.70
2022-08-10T21:15:07.463Z,15.60
2022-08-10T21:17:38.005Z,15.50
2022-08-10T21:20:43.289Z,15.50
2022-08-10T21:23:16.863Z,15.40
2022-08-10T21:26:08.127Z,15.40
2022-08-10T21:29:21.741Z,15.40
2022-08-10T21:32:23.651Z,15.40
2022-08-10T21:35:11.374Z,15.40
2022-08-10T21:38:24.051Z,15.30
2022-08-10T21:41:17.962Z,15.20
2022-08-10T21:44:13.854Z,15.20
2022-08-10T21:47:02.750Z,15.20
2022-08-10T21:50:04.013Z,15.10
2022-08-10T21:53:12.411Z,15.10
2022-08-10T21:56:16.516Z,15.00
2022-08-10T21:59:12.072Z,14.90
2022-08-10T22:02:09.970Z,14.80
2022-08-10T22:04:56.622Z,14.80
2022-08-10T22:07:47.992Z,14.80
2022-08-10T22:10:39.306Z,14.70
2022-08-10T22:13:27.941Z,14.60
2022-08-10T22:16:25.614Z,14.50
2022-08-10T22:19:17.346Z,14.50
2022-08-10T22:22:41.639Z,14.40
2022-08-10T22:26:24.490Z,14.40
2022-08-10T22:29:14.493Z,14.40
2022-08-10T22:32:15.677Z,14.40
2022-08-10T22:35:15.473Z,14.40
2022-08-10T22:38:38.930Z,14.40
2022-08-10T22:41:40.229Z,14.50
2022-08-10T22:44:29.891Z,14.40
2022-08-10T22:47:18.439Z,14.40
2022-08-10T22:49:51.838Z,14.40
2022-08-10T22:52:22.622Z,14.40
2022-08-10T22:55:21.963Z,14.40
2022-08-10T22:58:09.432Z,14.40
2022-08-10T23:00:37.854Z,14.40
2022-08-10T23:03:11.484Z,14.30
2022-08-10T23:05:48.514Z,14.20
2022-08-10T23:08:32.405Z,14.20
2022-08-10T23:11:08.774Z,14.10
2022-08-10T23:13:40.574Z,14.10
2022-08-10T23:16:48.948Z,14.10
2022-08-10T23:19:25.577Z,14.10
2022-08-10T23:22:15.479Z,14.20
2022-08-10T23:25:01.066Z,14.20
2022-08-10T23:27:37.869Z,14.20
2022-08-10T23:30:17.934Z,14.20
2022-08-10T23:32:49.244Z,14.20
2022-08-10T23:36:29.823Z,14.30
2022-08-10T23:38:08.141Z,14.20
2022-08-10T23:40:36.935Z,14.20
2022-08-10T23:43:05.472Z,14.20
2022-08-10T23:45:53.906Z,14.10
2022-08-10T23:48:29.755Z,14.00
2022-08-10T23:51:02.926Z,14.00
2022-08-10T23:53:34.267Z,13.90
2022-08-10T23:56:22.502Z,13.90
2022-08-10T23:58:58.842Z,13.90
